sensor_id;sensor_type;location;lat;lon;timestamp;pressure;altitude;pressure_sealevel;temperature;humidity
5522;BME280;2783;48.730;8.006;2024-03-06T00:00:15;100256.69;;;8.76;100.00
5522;BME280;2783;48.730;8.006;2024-03-06T00:02:40;100260.19;;;8.78;100.00
5522;BME280;2783;48.730;8.006;2024-03-06T00:05:06;100260.19;;;8.78;100.00
5522;BME280;2783;48.730;8.006;2024-03-06T00:07:33;100260.97;;;8.83;100.00
5522;BME280;2783;48.730;8.006;2024-03-06T00:09:58;100268.84;;;8.86;100.00
5522;BME280;2783;48.730;8.006;2024-03-06T00:12:23;100266.09;;;8.90;100.00
5522;BME280;2783;48.730;8.006;2024-03-06T00:14:49;100263.41;;;8.92;100.00
5522;BME280;2783;48.730;8.006;2024-03-06T00:17:14;100264.28;;;8.92;100.00
5522;BME280;2783;48.730;8.006;2024-03-06T00:19:40;100270.44;;;8.93;100.00
5522;BME280;2783;48.730;8.006;2024-03-06T00:22:06;100261.66;;;8.91;100.00
5522;BME280;2783;48.730;8.006;2024-03-06T00:24:31;100275.78;;;8.91;100.00
5522;BME280;2783;48.730;8.006;2024-03-06T00:26:57;100268.72;;;8.92;100.00
5522;BME280;2783;48.730;8.006;2024-03-06T00:29:23;100228.53;;;8.69;100.00
5522;BME280;2783;48.730;8.006;2024-03-06T00:31:49;100268.78;;;8.89;100.00
5522;BME280;2783;48.730;8.006;2024-03-06T00:34:14;100261.78;;;8.85;100.00
5522;BME280;2783;48.730;8.006;2024-03-06T00:36:40;100237.41;;;8.68;100.00
5522;BME280;2783;48.730;8.006;2024-03-06T00:39:06;100265.34;;;8.84;100.00
5522;BME280;2783;48.730;8.006;2024-03-06T00:41:34;100263.72;;;8.77;100.00
5522;BME280;2783;48.730;8.006;2024-03-06T00:43:59;100268.97;;;8.80;100.00
5522;BME280;2783;48.730;8.006;2024-03-06T00:46:25;100268.19;;;8.76;100.00
5522;BME280;2783;48.730;8.006;2024-03-06T00:48:50;100274.34;;;8.77;100.00
5522;BME280;2783;48.730;8.006;2024-03-06T00:51:15;100263.88;;;8.71;100.00
5522;BME280;2783;48.730;8.006;2024-03-06T00:53:41;100265.75;;;8.66;100.00
5522;BME280;2783;48.730;8.006;2024-03-06T00:56:07;100272.84;;;8.64;100.00
5522;BME280;2783;48.730;8.006;2024-03-06T00:58:32;100266.81;;;8.57;100.00
5522;BME280;2783;48.730;8.006;2024-03-06T01:00:58;100232.88;;;8.32;100.00
5522;BME280;2783;48.730;8.006;2024-03-06T01:03:24;100266.75;;;8.59;100.00
5522;BME280;2783;48.730;8.006;2024-03-06T01:05:50;100265.00;;;8.59;100.00
5522;BME280;2783;48.730;8.006;2024-03-06T01:08:17;100270.38;;;8.56;100.00
5522;BME280;2783;48.730;8.006;2024-03-06T01:10:43;100265.03;;;8.58;100.00
5522;BME280;2783;48.730;8.006;2024-03-06T01:13:08;100270.28;;;8.59;100.00
5522;BME280;2783;48.730;8.006;2024-03-06T01:15:36;100238.03;;;8.39;100.00
5522;BME280;2783;48.730;8.006;2024-03-06T01:18:01;100267.63;;;8.61;100.00
5522;BME280;2783;48.730;8.006;2024-03-06T01:20:28;100265.84;;;8.61;100.00
5522;BME280;2783;48.730;8.006;2024-03-06T01:22:53;100265.84;;;8.61;100.00
5522;BME280;2783;48.730;8.006;2024-03-06T01:25:19;100262.25;;;8.64;100.00
5522;BME280;2783;48.730;8.006;2024-03-06T01:27:44;100268.47;;;8.63;100.00
5522;BME280;2783;48.730;8.006;2024-03-06T01:30:10;100270.25;;;8.61;100.00
5522;BME280;2783;48.730;8.006;2024-03-06T01:32:35;100281.78;;;8.60;100.00
5522;BME280;2783;48.730;8.006;2024-03-06T01:35:02;100273.81;;;8.61;100.00
5522;BME280;2783;48.730;8.006;2024-03-06T01:37:27;100241.38;;;8.47;100.00
5522;BME280;2783;48.730;8.006;2024-03-06T01:39:53;100295.66;;;8.72;100.00
5522;BME280;2783;48.730;8.006;2024-03-06T01:42:18;100272.81;;;8.65;100.00
5522;BME280;2783;48.730;8.006;2024-03-06T01:44:44;100283.38;;;8.67;100.00
5522;BME280;2783;48.730;8.006;2024-03-06T01:47:09;100274.53;;;8.68;100.00
5522;BME280;2783;48.730;8.006;2024-03-06T01:49:35;100288.66;;;8.68;100.00
5522;BME280;2783;48.730;8.006;2024-03-06T01:52:01;100261.72;;;8.45;100.00
5522;BME280;2783;48.730;8.006;2024-03-06T01:54:27;100295.69;;;8.71;100.00
5522;BME280;2783;48.730;8.006;2024-03-06T01:56:53;100292.09;;;8.73;100.00
5522;BME280;2783;48.730;8.006;2024-03-06T01:59:21;100300.00;;;8.75;100.00
5522;BME280;2783;48.730;8.006;2024-03-06T02:01:52;100287.53;;;8.80;100.00
5522;BME280;2783;48.730;8.006;2024-03-06T02:04:19;100267.44;;;8.68;100.00
5522;BME280;2783;48.730;8.006;2024-03-06T02:06:46;100279.72;;;8.74;100.00
5522;BME280;2783;48.730;8.006;2024-03-06T02:09:12;100290.13;;;8.81;100.00
5522;BME280;2783;48.730;8.006;2024-03-06T02:11:38;100290.22;;;8.78;100.00
5522;BME280;2783;48.730;8.006;2024-03-06T02:14:04;100294.69;;;8.75;100.00
5522;BME280;2783;48.730;8.006;2024-03-06T02:16:31;100259.03;;;8.50;100.00
5522;BME280;2783;48.730;8.006;2024-03-06T02:18:57;100292.16;;;8.70;100.00
5522;BME280;2783;48.730;8.006;2024-03-06T02:21:24;100292.19;;;8.69;100.00
5522;BME280;2783;48.730;8.006;2024-03-06T02:23:50;100287.78;;;8.69;100.00
5522;BME280;2783;48.730;8.006;2024-03-06T02:26:20;100295.75;;;8.68;100.00
5522;BME280;2783;48.730;8.006;2024-03-06T02:28:50;100295.56;;;8.77;100.00
5522;BME280;2783;48.730;8.006;2024-03-06T02:31:16;100294.69;;;8.75;100.00
5522;BME280;2783;48.730;8.006;2024-03-06T02:33:43;100267.72;;;8.56;100.00
5522;BME280;2783;48.730;8.006;2024-03-06T02:36:10;100307.00;;;8.79;100.00
5522;BME280;2783;48.730;8.006;2024-03-06T02:38:35;100296.38;;;8.80;100.00
5522;BME280;2783;48.730;8.006;2024-03-06T02:41:01;100298.09;;;8.81;100.00
5522;BME280;2783;48.730;8.006;2024-03-06T02:43:27;100297.19;;;8.84;100.00
5522;BME280;2783;48.730;8.006;2024-03-06T02:45:52;100296.28;;;8.83;100.00
5522;BME280;2783;48.730;8.006;2024-03-06T02:48:18;100286.78;;;8.73;100.00
5522;BME280;2783;48.730;8.006;2024-03-06T02:50:43;100301.69;;;8.79;100.00
5522;BME280;2783;48.730;8.006;2024-03-06T02:53:09;100279.84;;;8.68;100.00
5522;BME280;2783;48.730;8.006;2024-03-06T02:55:34;100263.22;;;8.60;100.00
5522;BME280;2783;48.730;8.006;2024-03-06T02:58:03;100298.06;;;8.84;100.00
5522;BME280;2783;48.730;8.006;2024-03-06T03:00:29;100297.19;;;8.84;100.00
5522;BME280;2783;48.730;8.006;2024-03-06T03:02:54;100304.28;;;8.82;100.00
5522;BME280;2783;48.730;8.006;2024-03-06T03:05:19;100308.75;;;8.80;100.00
5522;BME280;2783;48.730;8.006;2024-03-06T03:07:45;100299.72;;;8.88;100.00
5522;BME280;2783;48.730;8.006;2024-03-06T03:10:10;100264.97;;;8.61;100.00
5522;BME280;2783;48.730;8.006;2024-03-06T03:12:38;100300.81;;;8.78;100.00
5522;BME280;2783;48.730;8.006;2024-03-06T03:15:04;100269.34;;;8.62;100.00
5522;BME280;2783;48.730;8.006;2024-03-06T03:17:29;100247.69;;;8.42;100.00
5522;BME280;2783;48.730;8.006;2024-03-06T03:19:55;100311.50;;;8.75;100.00
5522;BME280;2783;48.730;8.006;2024-03-06T03:22:20;100305.41;;;8.70;100.00
5522;BME280;2783;48.730;8.006;2024-03-06T03:24:46;100307.25;;;8.67;100.00
5522;BME280;2783;48.730;8.006;2024-03-06T03:27:12;100301.75;;;8.77;100.00
5522;BME280;2783;48.730;8.006;2024-03-06T03:29:38;100304.38;;;8.77;100.00
5522;BME280;2783;48.730;8.006;2024-03-06T03:32:03;100304.28;;;8.82;100.00
5522;BME280;2783;48.730;8.006;2024-03-06T03:34:29;100302.47;;;8.84;100.00
5522;BME280;2783;48.730;8.006;2024-03-06T03:36:55;100300.69;;;8.86;100.00
5522;BME280;2783;48.730;8.006;2024-03-06T03:39:22;100299.72;;;8.88;100.00
5522;BME280;2783;48.730;8.006;2024-03-06T03:41:49;100301.50;;;8.89;100.00
5522;BME280;2783;48.730;8.006;2024-03-06T03:44:16;100299.75;;;8.87;100.00
5522;BME280;2783;48.730;8.006;2024-03-06T03:46:43;100259.72;;;8.58;100.00
5522;BME280;2783;48.730;8.006;2024-03-06T03:49:09;100311.41;;;8.80;100.00
5522;BME280;2783;48.730;8.006;2024-03-06T03:51:35;100310.47;;;8.82;100.00
5522;BME280;2783;48.730;8.006;2024-03-06T03:54:02;100315.00;;;8.77;100.00
5522;BME280;2783;48.730;8.006;2024-03-06T03:56:27;100315.03;;;8.76;100.00
5522;BME280;2783;48.730;8.006;2024-03-06T03:58:53;100284.59;;;8.51;100.00
5522;BME280;2783;48.730;8.006;2024-03-06T04:01:18;100297.84;;;8.52;100.00
5522;BME280;2783;48.730;8.006;2024-03-06T04:03:43;100330.28;;;8.63;100.00
5522;BME280;2783;48.730;8.006;2024-03-06T04:06:10;100300.41;;;8.55;100.00
5522;BME280;2783;48.730;8.006;2024-03-06T04:08:36;100320.50;;;8.67;100.00
5522;BME280;2783;48.730;8.006;2024-03-06T04:11:03;100325.72;;;8.73;100.00
5522;BME280;2783;48.730;8.006;2024-03-06T04:13:29;100324.00;;;8.69;100.00
5522;BME280;2783;48.730;8.006;2024-03-06T04:15:54;100325.78;;;8.68;100.00
5522;BME280;2783;48.730;8.006;2024-03-06T04:18:20;100320.44;;;8.70;100.00
5522;BME280;2783;48.730;8.006;2024-03-06T04:20:46;100338.13;;;8.71;100.00
5522;BME280;2783;48.730;8.006;2024-03-06T04:23:11;100342.56;;;8.69;100.00
5522;BME280;2783;48.730;8.006;2024-03-06T04:25:37;100342.53;;;8.70;100.00
5522;BME280;2783;48.730;8.006;2024-03-06T04:28:05;100344.28;;;8.73;100.00
5522;BME280;2783;48.730;8.006;2024-03-06T04:30:33;100341.59;;;8.74;100.00
5522;BME280;2783;48.730;8.006;2024-03-06T04:32:58;100346.78;;;8.79;100.00
5522;BME280;2783;48.730;8.006;2024-03-06T04:35:23;100353.81;;;8.80;100.00
5522;BME280;2783;48.730;8.006;2024-03-06T04:37:49;100353.91;;;8.77;100.00
5522;BME280;2783;48.730;8.006;2024-03-06T04:40:15;100359.25;;;8.74;100.00
5522;BME280;2783;48.730;8.006;2024-03-06T04:42:45;100355.69;;;8.75;100.00
5522;BME280;2783;48.730;8.006;2024-03-06T04:45:12;100361.00;;;8.75;100.00
5522;BME280;2783;48.730;8.006;2024-03-06T04:47:38;100364.50;;;8.77;100.00
5522;BME280;2783;48.730;8.006;2024-03-06T04:50:03;100366.31;;;8.76;100.00
5522;BME280;2783;48.730;8.006;2024-03-06T04:52:29;100362.75;;;8.77;100.00
5522;BME280;2783;48.730;8.006;2024-03-06T04:54:54;100364.59;;;8.72;100.00
5522;BME280;2783;48.730;8.006;2024-03-06T04:57:19;100373.44;;;8.73;100.00
5522;BME280;2783;48.730;8.006;2024-03-06T04:59:45;100369.88;;;8.74;100.00
5522;BME280;2783;48.730;8.006;2024-03-06T05:02:10;100375.19;;;8.74;100.00
5522;BME280;2783;48.730;8.006;2024-03-06T05:04:35;100373.53;;;8.67;100.00
5522;BME280;2783;48.730;8.006;2024-03-06T05:07:01;100377.16;;;8.63;100.00
5522;BME280;2783;48.730;8.006;2024-03-06T05:09:27;100339.66;;;8.38;100.00
5522;BME280;2783;48.730;8.006;2024-03-06T05:11:52;100383.47;;;8.56;100.00
5522;BME280;2783;48.730;8.006;2024-03-06T05:14:18;100387.09;;;8.53;100.00
5522;BME280;2783;48.730;8.006;2024-03-06T05:16:43;100394.22;;;8.50;100.00
5522;BME280;2783;48.730;8.006;2024-03-06T05:19:09;100341.66;;;8.23;100.00
5522;BME280;2783;48.730;8.006;2024-03-06T05:21:36;100400.19;;;8.61;100.00
5522;BME280;2783;48.730;8.006;2024-03-06T05:24:01;100397.63;;;8.56;100.00
5522;BME280;2783;48.730;8.006;2024-03-06T05:26:27;100400.31;;;8.55;100.00
5522;BME280;2783;48.730;8.006;2024-03-06T05:28:52;100411.69;;;8.58;100.00
5522;BME280;2783;48.730;8.006;2024-03-06T05:31:19;100420.47;;;8.62;100.00
5522;BME280;2783;48.730;8.006;2024-03-06T05:33:48;100394.13;;;8.54;100.00
5522;BME280;2783;48.730;8.006;2024-03-06T05:36:14;100415.16;;;8.65;100.00
5522;BME280;2783;48.730;8.006;2024-03-06T05:38:40;100424.81;;;8.67;100.00
5522;BME280;2783;48.730;8.006;2024-03-06T05:41:06;100423.88;;;8.68;100.00
5522;BME280;2783;48.730;8.006;2024-03-06T05:43:31;100422.13;;;8.69;100.00
5522;BME280;2783;48.730;8.006;2024-03-06T05:45:57;100436.34;;;8.63;100.00
5522;BME280;2783;48.730;8.006;2024-03-06T05:48:22;100370.72;;;8.29;100.00
5522;BME280;2783;48.730;8.006;2024-03-06T05:50:49;100437.22;;;8.65;100.00
5522;BME280;2783;48.730;8.006;2024-03-06T05:53:14;100437.13;;;8.70;100.00
5522;BME280;2783;48.730;8.006;2024-03-06T05:55:40;100441.56;;;8.69;100.00
5522;BME280;2783;48.730;8.006;2024-03-06T05:58:05;100440.72;;;8.67;100.00
5522;BME280;2783;48.730;8.006;2024-03-06T06:00:31;100450.44;;;8.67;100.00
5522;BME280;2783;48.730;8.006;2024-03-06T06:02:56;100451.34;;;8.66;100.00
5522;BME280;2783;48.730;8.006;2024-03-06T06:05:22;100453.09;;;8.67;100.00
5522;BME280;2783;48.730;8.006;2024-03-06T06:07:48;100419.13;;;8.40;100.00
5522;BME280;2783;48.730;8.006;2024-03-06T06:10:14;100456.63;;;8.67;100.00
5522;BME280;2783;48.730;8.006;2024-03-06T06:12:39;100462.91;;;8.62;100.00
5522;BME280;2783;48.730;8.006;2024-03-06T06:15:06;100420.13;;;8.33;100.00
5522;BME280;2783;48.730;8.006;2024-03-06T06:17:33;100460.38;;;8.56;100.00
5522;BME280;2783;48.730;8.006;2024-03-06T06:19:59;100468.31;;;8.56;100.00
5522;BME280;2783;48.730;8.006;2024-03-06T06:22:27;100470.97;;;8.56;100.00
5522;BME280;2783;48.730;8.006;2024-03-06T06:24:53;100482.47;;;8.56;100.00
5522;BME280;2783;48.730;8.006;2024-03-06T06:27:20;100475.38;;;8.57;100.00
5522;BME280;2783;48.730;8.006;2024-03-06T06:29:45;100481.63;;;8.53;100.00
5522;BME280;2783;48.730;8.006;2024-03-06T06:32:11;100483.44;;;8.51;100.00
5522;BME280;2783;48.730;8.006;2024-03-06T06:34:36;100484.28;;;8.53;100.00
5522;BME280;2783;48.730;8.006;2024-03-06T06:37:02;100486.00;;;8.55;100.00
5522;BME280;2783;48.730;8.006;2024-03-06T06:39:27;100484.16;;;8.59;100.00
5522;BME280;2783;48.730;8.006;2024-03-06T06:41:53;100486.81;;;8.59;100.00
5522;BME280;2783;48.730;8.006;2024-03-06T06:44:18;100495.56;;;8.64;100.00
5522;BME280;2783;48.730;8.006;2024-03-06T06:46:43;100491.25;;;8.60;100.00
5522;BME280;2783;48.730;8.006;2024-03-06T06:49:09;100505.28;;;8.66;100.00
5522;BME280;2783;48.730;8.006;2024-03-06T06:51:34;100506.97;;;8.69;100.00
5522;BME280;2783;48.730;8.006;2024-03-06T06:54:00;100506.03;;;8.73;100.00
5522;BME280;2783;48.730;8.006;2024-03-06T06:56:26;100498.88;;;8.78;100.00
5522;BME280;2783;48.730;8.006;2024-03-06T06:58:52;100506.81;;;8.79;100.00
5522;BME280;2783;48.730;8.006;2024-03-06T07:01:18;100504.94;;;8.84;100.00
5522;BME280;2783;48.730;8.006;2024-03-06T07:03:45;100514.66;;;8.85;100.00
5522;BME280;2783;48.730;8.006;2024-03-06T07:06:10;100493.63;;;8.73;100.00
5522;BME280;2783;48.730;8.006;2024-03-06T07:08:36;100523.53;;;8.83;100.00
5522;BME280;2783;48.730;8.006;2024-03-06T07:11:02;100521.78;;;8.82;100.00
5522;BME280;2783;48.730;8.006;2024-03-06T07:13:28;100516.44;;;8.83;100.00
5522;BME280;2783;48.730;8.006;2024-03-06T07:15:53;100527.91;;;8.85;100.00
5522;BME280;2783;48.730;8.006;2024-03-06T07:18:19;100527.03;;;8.85;100.00
5522;BME280;2783;48.730;8.006;2024-03-06T07:20:44;100532.31;;;8.86;100.00
5522;BME280;2783;48.730;8.006;2024-03-06T07:23:10;100499.16;;;8.63;100.00
5522;BME280;2783;48.730;8.006;2024-03-06T07:25:35;100542.88;;;8.89;100.00
5522;BME280;2783;48.730;8.006;2024-03-06T07:28:01;100544.53;;;8.95;100.00
5522;BME280;2783;48.730;8.006;2024-03-06T07:30:27;100554.19;;;8.99;100.00
5522;BME280;2783;48.730;8.006;2024-03-06T07:32:54;100540.69;;;9.11;100.00
5522;BME280;2783;48.730;8.006;2024-03-06T07:35:20;100548.50;;;9.20;100.00
5522;BME280;2783;48.730;8.006;2024-03-06T07:37:45;100548.41;;;9.24;100.00
5522;BME280;2783;48.730;8.006;2024-03-06T07:40:12;100543.91;;;9.28;100.00
5522;BME280;2783;48.730;8.006;2024-03-06T07:42:37;100547.53;;;9.25;100.00
5522;BME280;2783;48.730;8.006;2024-03-06T07:45:05;100561.63;;;9.29;100.00
5522;BME280;2783;48.730;8.006;2024-03-06T07:47:30;100547.38;;;9.33;100.00
5522;BME280;2783;48.730;8.006;2024-03-06T07:49:55;100556.19;;;9.35;100.00
5522;BME280;2783;48.730;8.006;2024-03-06T07:52:21;100552.78;;;9.28;100.00
5522;BME280;2783;48.730;8.006;2024-03-06T07:54:46;100550.78;;;9.40;100.00
5522;BME280;2783;48.730;8.006;2024-03-06T07:57:12;100484.97;;;9.11;100.00
5522;BME280;2783;48.730;8.006;2024-03-06T07:59:37;100550.34;;;9.61;100.00
5522;BME280;2783;48.730;8.006;2024-03-06T08:02:03;100554.69;;;9.65;100.00
5522;BME280;2783;48.730;8.006;2024-03-06T08:04:30;100554.09;;;9.52;100.00
5522;BME280;2783;48.730;8.006;2024-03-06T08:06:55;100558.38;;;9.58;100.00
5522;BME280;2783;48.730;8.006;2024-03-06T08:09:21;100559.06;;;9.67;100.00
5522;BME280;2783;48.730;8.006;2024-03-06T08:11:46;100573.91;;;9.77;100.00
5522;BME280;2783;48.730;8.006;2024-03-06T08:14:12;100567.88;;;9.69;100.00
5522;BME280;2783;48.730;8.006;2024-03-06T08:16:40;100561.81;;;9.63;100.00
5522;BME280;2783;48.730;8.006;2024-03-06T08:19:05;100557.34;;;9.65;100.00
5522;BME280;2783;48.730;8.006;2024-03-06T08:21:30;100560.56;;;9.82;100.00
5522;BME280;2783;48.730;8.006;2024-03-06T08:23:56;100538.53;;;9.31;100.00
5522;BME280;2783;48.730;8.006;2024-03-06T08:26:22;100564.50;;;9.61;100.00
5522;BME280;2783;48.730;8.006;2024-03-06T08:28:48;100574.41;;;9.53;100.00
5522;BME280;2783;48.730;8.006;2024-03-06T08:31:14;100546.22;;;9.46;100.00
5522;BME280;2783;48.730;8.006;2024-03-06T08:33:39;100532.19;;;9.40;100.00
5522;BME280;2783;48.730;8.006;2024-03-06T08:36:05;100573.81;;;9.83;100.00
5522;BME280;2783;48.730;8.006;2024-03-06T08:38:30;100581.06;;;9.74;100.00
5522;BME280;2783;48.730;8.006;2024-03-06T08:40:56;100583.25;;;9.96;100.00
5522;BME280;2783;48.730;8.006;2024-03-06T08:43:21;100568.22;;;9.95;100.00
5522;BME280;2783;48.730;8.006;2024-03-06T08:45:46;100589.31;;;10.03;100.00
5522;BME280;2783;48.730;8.006;2024-03-06T08:48:12;100583.91;;;10.07;100.00
5522;BME280;2783;48.730;8.006;2024-03-06T08:50:38;100597.44;;;9.95;100.00
5522;BME280;2783;48.730;8.006;2024-03-06T08:53:03;100598.44;;;9.91;100.00
5522;BME280;2783;48.730;8.006;2024-03-06T08:55:29;100603.81;;;9.88;100.00
5522;BME280;2783;48.730;8.006;2024-03-06T08:57:54;100599.13;;;9.99;100.00
5522;BME280;2783;48.730;8.006;2024-03-06T09:00:20;100529.94;;;9.63;100.00
5522;BME280;2783;48.730;8.006;2024-03-06T09:02:45;100599.72;;;10.15;100.00
5522;BME280;2783;48.730;8.006;2024-03-06T09:05:11;100596.97;;;10.19;99.40
5522;BME280;2783;48.730;8.006;2024-03-06T09:07:38;100600.34;;;10.27;99.10
5522;BME280;2783;48.730;8.006;2024-03-06T09:10:08;100611.66;;;10.35;98.85
5522;BME280;2783;48.730;8.006;2024-03-06T09:12:35;100578.06;;;10.31;99.31
5522;BME280;2783;48.730;8.006;2024-03-06T09:15:01;100608.63;;;10.52;97.98
5522;BME280;2783;48.730;8.006;2024-03-06T09:17:27;100600.81;;;10.44;97.58
5522;BME280;2783;48.730;8.006;2024-03-06T09:19:54;100609.47;;;10.54;96.88
5522;BME280;2783;48.730;8.006;2024-03-06T09:22:19;100611.09;;;10.59;95.95
5522;BME280;2783;48.730;8.006;2024-03-06T09:24:45;100609.53;;;10.51;95.17
5522;BME280;2783;48.730;8.006;2024-03-06T09:27:10;100609.16;;;10.29;94.68
5522;BME280;2783;48.730;8.006;2024-03-06T09:29:36;100619.03;;;10.24;94.90
5522;BME280;2783;48.730;8.006;2024-03-06T09:32:01;100620.53;;;10.36;94.75
5522;BME280;2783;48.730;8.006;2024-03-06T09:34:27;100613.28;;;10.42;95.25
5522;BME280;2783;48.730;8.006;2024-03-06T09:36:52;100615.94;;;10.42;92.37
5522;BME280;2783;48.730;8.006;2024-03-06T09:39:19;100623.97;;;10.41;93.83
5522;BME280;2783;48.730;8.006;2024-03-06T09:41:53;100622.44;;;10.29;92.04
5522;BME280;2783;48.730;8.006;2024-03-06T09:44:20;100595.16;;;10.20;93.37
5522;BME280;2783;48.730;8.006;2024-03-06T09:46:47;100629.00;;;10.53;92.90
5522;BME280;2783;48.730;8.006;2024-03-06T09:49:20;100626.19;;;10.60;92.07
5522;BME280;2783;48.730;8.006;2024-03-06T09:51:47;100629.28;;;10.78;92.92
5522;BME280;2783;48.730;8.006;2024-03-06T09:54:15;100631.84;;;11.17;93.50
5522;BME280;2783;48.730;8.006;2024-03-06T09:56:42;100636.50;;;11.44;92.67
5522;BME280;2783;48.730;8.006;2024-03-06T09:59:09;100638.94;;;11.52;91.43
5522;BME280;2783;48.730;8.006;2024-03-06T10:01:40;100634.22;;;11.63;89.94
5522;BME280;2783;48.730;8.006;2024-03-06T10:06:45;100624.31;;;12.00;86.69
5522;BME280;2783;48.730;8.006;2024-03-06T10:09:11;100625.34;;;11.94;85.49
5522;BME280;2783;48.730;8.006;2024-03-06T10:11:40;100625.19;;;12.30;86.80
5522;BME280;2783;48.730;8.006;2024-03-06T10:14:07;100631.38;;;12.32;82.94
5522;BME280;2783;48.730;8.006;2024-03-06T10:16:33;100626.81;;;12.35;81.42
5522;BME280;2783;48.730;8.006;2024-03-06T10:19:17;100628.56;;;12.36;81.21
5522;BME280;2783;48.730;8.006;2024-03-06T10:21:44;100625.88;;;12.36;80.75
5522;BME280;2783;48.730;8.006;2024-03-06T10:24:31;100626.16;;;12.56;81.49
5522;BME280;2783;48.730;8.006;2024-03-06T10:26:57;100621.78;;;12.54;82.27
5522;BME280;2783;48.730;8.006;2024-03-06T10:29:25;100622.19;;;12.11;81.65
5522;BME280;2783;48.730;8.006;2024-03-06T10:31:57;100627.72;;;12.05;79.04
5522;BME280;2783;48.730;8.006;2024-03-06T10:34:27;100629.72;;;11.97;82.10
5522;BME280;2783;48.730;8.006;2024-03-06T10:36:57;100628.91;;;11.95;83.38
5522;BME280;2783;48.730;8.006;2024-03-06T10:39:23;100621.94;;;11.89;83.10
5522;BME280;2783;48.730;8.006;2024-03-06T10:41:56;100631.97;;;11.80;81.38
5522;BME280;2783;48.730;8.006;2024-03-06T10:44:25;100627.41;;;11.85;81.24
5522;BME280;2783;48.730;8.006;2024-03-06T10:46:56;100627.31;;;11.88;83.45
5522;BME280;2783;48.730;8.006;2024-03-06T10:49:28;100623.22;;;12.07;83.00
5522;BME280;2783;48.730;8.006;2024-03-06T10:51:59;100618.34;;;12.21;83.37
5522;BME280;2783;48.730;8.006;2024-03-06T10:54:29;100618.28;;;12.23;83.81
5522;BME280;2783;48.730;8.006;2024-03-06T10:56:55;100619.19;;;12.23;83.28
5522;BME280;2783;48.730;8.006;2024-03-06T10:59:26;100615.03;;;12.13;83.81
5522;BME280;2783;48.730;8.006;2024-03-06T11:01:55;100622.03;;;12.17;83.07
5522;BME280;2783;48.730;8.006;2024-03-06T11:04:23;100618.78;;;12.06;82.87
5522;BME280;2783;48.730;8.006;2024-03-06T11:06:50;100605.38;;;11.78;81.83
5522;BME280;2783;48.730;8.006;2024-03-06T11:09:15;100635.22;;;11.91;83.67
5522;BME280;2783;48.730;8.006;2024-03-06T11:11:51;100617.25;;;11.99;83.15
5522;BME280;2783;48.730;8.006;2024-03-06T11:14:17;100625.97;;;12.04;83.29
5522;BME280;2783;48.730;8.006;2024-03-06T11:17:16;100624.75;;;12.14;83.52
5522;BME280;2783;48.730;8.006;2024-03-06T11:28:24;100625.50;;;12.21;84.49
5522;BME280;2783;48.730;8.006;2024-03-06T11:31:11;100626.00;;;12.33;84.02
5522;BME280;2783;48.730;8.006;2024-03-06T11:33:43;100624.97;;;12.37;84.13
5522;BME280;2783;48.730;8.006;2024-03-06T11:36:15;100624.09;;;12.37;84.47
5522;BME280;2783;48.730;8.006;2024-03-06T11:39:05;100625.84;;;12.38;83.36
5522;BME280;2783;48.730;8.006;2024-03-06T11:44:12;100622.34;;;12.36;82.41
5522;BME280;2783;48.730;8.006;2024-03-06T11:46:47;100619.28;;;12.20;82.13
5522;BME280;2783;48.730;8.006;2024-03-06T11:49:20;100625.97;;;12.04;81.96
5522;BME280;2783;48.730;8.006;2024-03-06T11:51:46;100622.63;;;11.96;81.80
5522;BME280;2783;48.730;8.006;2024-03-06T11:54:12;100628.84;;;11.97;81.69
5522;BME280;2783;48.730;8.006;2024-03-06T11:56:39;100636.72;;;12.01;83.47
5522;BME280;2783;48.730;8.006;2024-03-06T11:59:05;100633.09;;;12.04;83.41
5522;BME280;2783;48.730;8.006;2024-03-06T12:01:33;100625.19;;;12.01;84.54
5522;BME280;2783;48.730;8.006;2024-03-06T12:03:58;100621.44;;;12.06;84.01
5522;BME280;2783;48.730;8.006;2024-03-06T12:06:26;100624.66;;;11.88;84.00
5522;BME280;2783;48.730;8.006;2024-03-06T12:08:53;100625.63;;;11.85;84.17
5522;BME280;2783;48.730;8.006;2024-03-06T12:11:19;100613.97;;;11.88;84.18
5522;BME280;2783;48.730;8.006;2024-03-06T12:13:48;100621.00;;;11.92;84.32
5522;BME280;2783;48.730;8.006;2024-03-06T12:16:14;100626.66;;;11.80;83.68
5522;BME280;2783;48.730;8.006;2024-03-06T12:18:39;100624.34;;;11.66;83.39
5522;BME280;2783;48.730;8.006;2024-03-06T12:21:05;100609.41;;;11.61;84.49
5522;BME280;2783;48.730;8.006;2024-03-06T12:23:31;100619.91;;;11.67;85.44
5522;BME280;2783;48.730;8.006;2024-03-06T12:26:06;100592.00;;;11.48;86.59
5522;BME280;2783;48.730;8.006;2024-03-06T12:28:35;100609.03;;;11.76;86.99
5522;BME280;2783;48.730;8.006;2024-03-06T12:31:05;100578.28;;;11.63;87.47
5522;BME280;2783;48.730;8.006;2024-03-06T12:33:31;100613.97;;;11.88;86.80
5522;BME280;2783;48.730;8.006;2024-03-06T12:36:03;100604.00;;;11.94;86.71
5522;BME280;2783;48.730;8.006;2024-03-06T12:38:30;100607.84;;;11.86;86.05
5522;BME280;2783;48.730;8.006;2024-03-06T12:40:55;100608.03;;;11.78;84.27
5522;BME280;2783;48.730;8.006;2024-03-06T12:43:21;100606.34;;;11.76;84.47
5522;BME280;2783;48.730;8.006;2024-03-06T12:45:46;100611.75;;;11.73;84.65
5522;BME280;2783;48.730;8.006;2024-03-06T12:48:11;100616.31;;;11.68;84.42
5522;BME280;2783;48.730;8.006;2024-03-06T12:50:38;100611.97;;;11.65;85.16
5522;BME280;2783;48.730;8.006;2024-03-06T12:53:03;100574.25;;;11.47;85.89
5522;BME280;2783;48.730;8.006;2024-03-06T12:55:30;100609.34;;;11.64;86.01
5522;BME280;2783;48.730;8.006;2024-03-06T12:57:57;100605.50;;;11.74;85.73
5522;BME280;2783;48.730;8.006;2024-03-06T13:00:22;100606.50;;;11.70;84.12
5522;BME280;2783;48.730;8.006;2024-03-06T13:02:49;100606.81;;;11.58;84.84
5522;BME280;2783;48.730;8.006;2024-03-06T13:05:16;100609.53;;;11.56;83.44
5522;BME280;2783;48.730;8.006;2024-03-06T13:07:45;100599.59;;;11.61;84.67
5522;BME280;2783;48.730;8.006;2024-03-06T13:10:11;100537.66;;;11.23;84.88
5522;BME280;2783;48.730;8.006;2024-03-06T13:12:40;100600.69;;;11.54;85.37
5522;BME280;2783;48.730;8.006;2024-03-06T13:15:05;100593.50;;;11.58;85.01
5522;BME280;2783;48.730;8.006;2024-03-06T13:17:33;100603.03;;;11.66;84.51
5522;BME280;2783;48.730;8.006;2024-03-06T13:19:58;100597.72;;;11.66;84.39